Time;durP1;ratioP1;P1;durP2;ratioP2;P2;SDS_P1;SDS_P2;PMS_P1;PMS_P2;Temp;Humidity;BMP_temperature;BMP_pressure;BME280_temperature;BME280_humidity;BME280_pressure;Samples;Min_cycle;Max_cycle;Signal;HPM_P1;HPM_P2
2022/08/31 00:06:20;;;;;;;0.70;0.60;;;;;;;;;;5062288;28;20471;-78
2022/08/31 00:08:47;;;;;;;0.80;0.60;;;;;;;;;;5064795;28;20463;-78
2022/08/31 00:11:15;;;;;;;0.80;0.70;;;;;;;;;;5065691;28;20424;-77
2022/08/31 00:13:42;;;;;;;0.80;0.70;;;;;;;;;;5070218;28;20431;-76
2022/08/31 00:16:10;;;;;;;0.80;0.70;;;;;;;;;;5066226;28;20428;-77
2022/08/31 00:18:37;;;;;;;1.27;1.20;;;;;;;;;;5066387;28;20510;-76
2022/08/31 00:21:04;;;;;;;0.80;0.70;;;;;;;;;;5063546;28;20971;-77
2022/08/31 00:23:33;;;;;;;0.70;0.70;;;;;;;;;;5062397;28;20498;-77
2022/08/31 00:26:00;;;;;;;1.00;0.90;;;;;;;;;;5064988;28;20444;-75
2022/08/31 00:28:28;;;;;;;0.70;0.70;;;;;;;;;;5068042;28;20474;-74
2022/08/31 00:30:54;;;;;;;0.90;0.90;;;;;;;;;;5067622;28;20539;-75
2022/08/31 00:33:21;;;;;;;0.80;0.80;;;;;;;;;;5064009;28;20554;-74
2022/08/31 00:35:48;;;;;;;0.80;0.80;;;;;;;;;;5048916;28;20463;-75
2022/08/31 00:38:15;;;;;;;1.53;1.43;;;;;;;;;;5063986;28;20491;-75
2022/08/31 00:40:44;;;;;;;1.03;1.00;;;;;;;;;;5066045;28;20495;-75
2022/08/31 00:43:11;;;;;;;0.80;0.73;;;;;;;;;;5059756;28;20441;-75
2022/08/31 00:45:38;;;;;;;1.17;1.10;;;;;;;;;;5065985;28;20444;-75
2022/08/31 00:48:05;;;;;;;0.70;0.60;;;;;;;;;;5046969;28;20556;-75
2022/08/31 00:50:32;;;;;;;0.90;0.90;;;;;;;;;;5063706;28;20569;-75
2022/08/31 00:53:03;;;;;;;0.97;0.90;;;;;;;;;;5064115;28;20465;-76
2022/08/31 00:55:34;;;;;;;0.80;0.70;;;;;;;;;;5061498;28;20819;-75
2022/08/31 00:58:08;;;;;;;0.70;0.70;;;;;;;;;;5058457;28;20471;-75
2022/08/31 01:00:50;;;;;;;0.70;0.70;;;;;;;;;;5063840;28;20472;-76
2022/08/31 01:03:21;;;;;;;0.80;0.73;;;;;;;;;;5068716;28;20459;-76
2022/08/31 01:05:52;;;;;;;0.80;0.70;;;;;;;;;;5062230;28;20476;-76
2022/08/31 01:08:21;;;;;;;0.80;0.70;;;;;;;;;;5031790;28;20454;-77
2022/08/31 01:10:56;;;;;;;0.70;0.67;;;;;;;;;;5063681;28;20862;-78
2022/08/31 01:13:26;;;;;;;0.70;0.70;;;;;;;;;;5062485;28;21006;-77
2022/08/31 01:16:02;;;;;;;0.80;0.70;;;;;;;;;;5065669;28;20439;-75
2022/08/31 01:18:34;;;;;;;0.70;0.70;;;;;;;;;;5063654;28;20509;-75
2022/08/31 01:21:08;;;;;;;0.80;0.70;;;;;;;;;;5064771;28;20473;-74
2022/08/31 01:23:38;;;;;;;0.80;0.70;;;;;;;;;;5064115;28;20499;-75
2022/08/31 01:26:13;;;;;;;0.70;0.67;;;;;;;;;;5061748;28;20446;-74
2022/08/31 01:28:41;;;;;;;0.80;0.80;;;;;;;;;;5050724;28;20863;-74
2022/08/31 01:31:15;;;;;;;0.70;0.70;;;;;;;;;;5063813;28;20996;-73
2022/08/31 01:33:48;;;;;;;0.70;0.70;;;;;;;;;;5060816;28;20445;-72
2022/08/31 01:36:23;;;;;;;0.70;0.70;;;;;;;;;;5061067;28;20472;-72
2022/08/31 01:38:57;;;;;;;0.70;0.70;;;;;;;;;;5067757;28;20480;-71
2022/08/31 01:41:42;;;;;;;1.57;1.17;;;;;;;;;;5062403;28;20517;-72
2022/08/31 01:44:12;;;;;;;0.80;0.80;;;;;;;;;;5039594;28;20457;-72
2022/08/31 01:46:45;;;;;;;0.87;0.87;;;;;;;;;;5062926;28;20980;-72
2022/08/31 01:49:14;;;;;;;0.70;0.70;;;;;;;;;;5060205;28;20431;-73
2022/08/31 01:51:43;;;;;;;0.80;0.80;;;;;;;;;;5050621;28;20470;-73
2022/08/31 01:54:17;;;;;;;0.80;0.80;;;;;;;;;;5060475;28;20454;-73
2022/08/31 01:56:47;;;;;;;1.00;1.00;;;;;;;;;;5055977;28;20448;-73
2022/08/31 01:59:22;;;;;;;0.70;0.70;;;;;;;;;;5062001;28;20463;-72
2022/08/31 02:02:23;;;;;;;0.83;0.83;;;;;;;;;;5064359;28;20449;-73
2022/08/31 02:04:59;;;;;;;1.00;1.00;;;;;;;;;;5059292;28;20481;-72
2022/08/31 02:07:31;;;;;;;0.73;0.70;;;;;;;;;;5059851;28;20823;-73
2022/08/31 02:10:08;;;;;;;0.70;0.60;;;;;;;;;;5059620;28;20467;-73
2022/08/31 02:12:36;;;;;;;0.70;0.70;;;;;;;;;;5061456;28;20810;-73
2022/08/31 02:15:06;;;;;;;1.17;1.07;;;;;;;;;;5063893;28;20469;-73
2022/08/31 02:17:33;;;;;;;0.80;0.70;;;;;;;;;;5042600;28;20442;-74
2022/08/31 02:20:03;;;;;;;1.00;0.90;;;;;;;;;;5064584;28;20474;-73
2022/08/31 02:22:30;;;;;;;0.87;0.87;;;;;;;;;;5064772;28;20483;-73
2022/08/31 02:24:57;;;;;;;2.00;1.90;;;;;;;;;;5065566;28;20434;-73
2022/08/31 02:27:27;;;;;;;0.80;0.73;;;;;;;;;;5067028;28;20462;-73
2022/08/31 02:29:55;;;;;;;0.73;0.70;;;;;;;;;;5067831;28;20462;-72
2022/08/31 02:32:22;;;;;;;0.70;0.70;;;;;;;;;;5065582;28;20471;-72
2022/08/31 02:34:49;;;;;;;0.70;0.70;;;;;;;;;;5062892;28;20464;-71
2022/08/31 02:37:17;;;;;;;0.70;0.67;;;;;;;;;;5065121;28;20775;-72
2022/08/31 02:39:46;;;;;;;2.90;1.87;;;;;;;;;;5067509;28;20508;-71
2022/08/31 02:42:16;;;;;;;0.70;0.70;;;;;;;;;;5048644;28;20825;-71
2022/08/31 02:44:46;;;;;;;1.20;1.10;;;;;;;;;;5068311;28;20436;-72
2022/08/31 02:47:15;;;;;;;0.70;0.70;;;;;;;;;;5067974;28;20488;-72
2022/08/31 02:49:51;;;;;;;1.67;1.57;;;;;;;;;;5069173;28;20473;-72
2022/08/31 02:52:19;;;;;;;0.80;0.80;;;;;;;;;;5066869;28;20489;-72
2022/08/31 02:54:46;;;;;;;0.80;0.73;;;;;;;;;;5062017;28;20504;-72
2022/08/31 02:57:13;;;;;;;1.20;1.10;;;;;;;;;;5064052;28;20504;-72
2022/08/31 02:59:40;;;;;;;0.70;0.70;;;;;;;;;;5067003;28;20811;-72
2022/08/31 03:02:08;;;;;;;1.00;1.00;;;;;;;;;;5064140;28;20898;-72
2022/08/31 03:04:37;;;;;;;0.70;0.70;;;;;;;;;;5059964;28;20983;-72
2022/08/31 03:07:04;;;;;;;1.00;0.90;;;;;;;;;;5049666;28;20471;-73
2022/08/31 03:09:31;;;;;;;0.90;0.80;;;;;;;;;;5067699;28;20440;-72
2022/08/31 03:11:58;;;;;;;2.10;1.10;;;;;;;;;;5065386;28;20443;-72
2022/08/31 03:14:25;;;;;;;0.70;0.70;;;;;;;;;;5066770;28;20446;-72
2022/08/31 03:16:53;;;;;;;0.70;0.70;;;;;;;;;;5066591;28;20517;-72
2022/08/31 03:19:22;;;;;;;0.70;0.70;;;;;;;;;;5070717;28;20969;-72
2022/08/31 03:21:49;;;;;;;1.17;0.90;;;;;;;;;;5067762;28;20486;-73
2022/08/31 03:24:22;;;;;;;2.40;1.17;;;;;;;;;;5070192;28;20466;-72
2022/08/31 03:26:54;;;;;;;1.40;1.30;;;;;;;;;;5067697;28;20539;-72
2022/08/31 03:29:20;;;;;;;0.90;0.90;;;;;;;;;;5067602;28;20436;-72
2022/08/31 03:32:07;;;;;;;1.77;1.67;;;;;;;;;;5063818;28;20466;-72
2022/08/31 03:34:37;;;;;;;1.10;1.00;;;;;;;;;;5061951;28;20452;-73
2022/08/31 03:37:04;;;;;;;0.80;0.70;;;;;;;;;;5050147;28;20488;-73
2022/08/31 03:39:32;;;;;;;0.70;0.70;;;;;;;;;;5055299;28;20849;-73
2022/08/31 03:41:59;;;;;;;0.70;0.70;;;;;;;;;;5061793;28;21004;-73
2022/08/31 03:44:26;;;;;;;0.73;0.73;;;;;;;;;;5063189;28;20479;-72
2022/08/31 03:46:56;;;;;;;0.70;0.70;;;;;;;;;;5050076;28;20454;-73
2022/08/31 03:49:25;;;;;;;1.00;1.00;;;;;;;;;;5048462;28;20446;-72
2022/08/31 03:52:23;;;;;;;0.70;0.70;;;;;;;;;;5036655;28;20992;-73
2022/08/31 03:55:03;;;;;;;0.70;0.70;;;;;;;;;;5066626;28;20453;-72
2022/08/31 03:57:31;;;;;;;2.03;0.90;;;;;;;;;;5062760;28;20511;-74
2022/08/31 03:59:59;;;;;;;1.30;1.20;;;;;;;;;;5049248;28;20973;-73
2022/08/31 04:02:38;;;;;;;0.80;0.80;;;;;;;;;;5064062;28;20526;-72
2022/08/31 04:05:20;;;;;;;0.70;0.70;;;;;;;;;;5065709;28;20450;-72
2022/08/31 04:08:07;;;;;;;0.70;0.70;;;;;;;;;;5062573;28;20425;-72
2022/08/31 04:10:47;;;;;;;1.30;1.20;;;;;;;;;;5065016;28;20982;-72
2022/08/31 04:13:32;;;;;;;1.47;1.37;;;;;;;;;;5068010;28;20452;-72
2022/08/31 04:16:31;;;;;;;0.70;0.70;;;;;;;;;;5056173;28;20442;-72
2022/08/31 04:19:30;;;;;;;0.80;0.80;;;;;;;;;;5064972;28;20788;-73
2022/08/31 04:22:11;;;;;;;1.10;1.00;;;;;;;;;;5061438;28;20482;-72
2022/08/31 04:24:49;;;;;;;0.70;0.60;;;;;;;;;;5063844;28;20806;-72
2022/08/31 04:27:17;;;;;;;0.63;0.60;;;;;;;;;;5062963;28;20497;-72
2022/08/31 04:29:43;;;;;;;1.93;1.40;;;;;;;;;;5063549;28;20444;-73
2022/08/31 04:32:11;;;;;;;0.70;0.60;;;;;;;;;;5064573;28;20469;-73
2022/08/31 04:34:38;;;;;;;0.70;0.70;;;;;;;;;;5045126;28;20812;-73
2022/08/31 04:37:07;;;;;;;0.70;0.63;;;;;;;;;;5066643;28;20820;-72
2022/08/31 04:39:36;;;;;;;1.50;1.40;;;;;;;;;;5060907;28;20458;-72
2022/08/31 04:42:18;;;;;;;0.70;0.60;;;;;;;;;;5052286;28;20499;-73
2022/08/31 04:44:46;;;;;;;0.70;0.70;;;;;;;;;;5061332;28;20467;-72
2022/08/31 04:47:14;;;;;;;0.70;0.70;;;;;;;;;;5052908;28;20474;-72
2022/08/31 04:49:42;;;;;;;1.47;0.90;;;;;;;;;;5063998;28;20447;-72
2022/08/31 04:52:09;;;;;;;1.63;1.53;;;;;;;;;;5061259;28;20499;-72
2022/08/31 04:54:37;;;;;;;1.53;1.10;;;;;;;;;;5061827;28;20467;-72
2022/08/31 04:57:04;;;;;;;1.30;1.10;;;;;;;;;;5061619;28;20442;-72
2022/08/31 04:59:33;;;;;;;0.70;0.70;;;;;;;;;;5061664;28;20436;-72
2022/08/31 05:02:22;;;;;;;1.47;1.37;;;;;;;;;;5064832;28;20509;-72
2022/08/31 05:05:08;;;;;;;0.70;0.70;;;;;;;;;;5061372;28;20496;-72
2022/08/31 05:07:36;;;;;;;0.80;0.80;;;;;;;;;;5049026;28;20835;-72
2022/08/31 05:10:06;;;;;;;1.00;1.00;;;;;;;;;;5066154;28;20555;-72
2022/08/31 05:12:35;;;;;;;1.40;1.10;;;;;;;;;;5062201;28;20975;-72
2022/08/31 05:15:04;;;;;;;1.13;1.07;;;;;;;;;;5061707;28;20479;-72
2022/08/31 05:17:31;;;;;;;1.00;0.90;;;;;;;;;;5056480;28;20459;-72
2022/08/31 05:19:58;;;;;;;1.30;1.20;;;;;;;;;;5050576;28;20496;-72
2022/08/31 05:22:27;;;;;;;0.70;0.70;;;;;;;;;;5058644;28;20487;-72
2022/08/31 05:24:55;;;;;;;0.90;0.90;;;;;;;;;;5064554;28;20975;-72
2022/08/31 05:27:22;;;;;;;0.70;0.70;;;;;;;;;;5046635;28;20489;-72
2022/08/31 05:29:49;;;;;;;0.80;0.80;;;;;;;;;;5064029;28;20449;-72
2022/08/31 05:32:35;;;;;;;0.70;0.70;;;;;;;;;;5064073;28;20466;-73
2022/08/31 05:35:08;;;;;;;1.20;1.07;;;;;;;;;;5060123;28;20441;-73
2022/08/31 05:37:36;;;;;;;0.70;0.60;;;;;;;;;;5062904;28;20526;-74
2022/08/31 05:40:04;;;;;;;0.70;0.70;;;;;;;;;;5063458;28;20437;-73
2022/08/31 05:42:31;;;;;;;1.90;1.63;;;;;;;;;;5060729;28;20475;-73
2022/08/31 05:44:58;;;;;;;0.70;0.70;;;;;;;;;;5062086;28;20563;-74
2022/08/31 05:47:26;;;;;;;0.80;0.80;;;;;;;;;;5062174;28;20457;-74
2022/08/31 05:49:54;;;;;;;0.70;0.60;;;;;;;;;;5063500;28;20444;-74
2022/08/31 05:52:22;;;;;;;1.07;0.87;;;;;;;;;;5061171;28;20869;-74
2022/08/31 05:54:50;;;;;;;0.80;0.80;;;;;;;;;;5062822;28;20475;-73
2022/08/31 05:57:18;;;;;;;0.70;0.60;;;;;;;;;;5063720;28;20444;-74
2022/08/31 05:59:52;;;;;;;1.33;1.07;;;;;;;;;;5063307;28;20817;-74
2022/08/31 06:02:20;;;;;;;1.87;1.77;;;;;;;;;;5056189;28;21000;-74
2022/08/31 06:04:47;;;;;;;0.70;0.70;;;;;;;;;;5063405;28;20469;-74
2022/08/31 06:07:20;;;;;;;1.33;1.23;;;;;;;;;;5061725;28;20476;-74
2022/08/31 06:09:54;;;;;;;0.80;0.80;;;;;;;;;;5067235;28;20451;-74
2022/08/31 06:12:25;;;;;;;0.70;0.70;;;;;;;;;;5058858;28;20450;-74
2022/08/31 06:14:54;;;;;;;0.77;0.77;;;;;;;;;;5058572;28;20449;-74
2022/08/31 06:17:23;;;;;;;1.17;1.07;;;;;;;;;;5058698;28;20447;-74
2022/08/31 06:19:50;;;;;;;0.80;0.80;;;;;;;;;;5060396;28;20456;-74
2022/08/31 06:22:18;;;;;;;5.30;1.63;;;;;;;;;;5045320;28;20803;-74
2022/08/31 06:24:52;;;;;;;0.87;0.87;;;;;;;;;;5043301;28;20447;-75
2022/08/31 06:27:19;;;;;;;2.07;1.97;;;;;;;;;;5060497;28;20442;-75
2022/08/31 06:29:49;;;;;;;0.70;0.70;;;;;;;;;;5056934;28;20451;-75
2022/08/31 06:32:16;;;;;;;0.80;0.80;;;;;;;;;;5041985;28;20947;-75
2022/08/31 06:34:56;;;;;;;1.60;1.33;;;;;;;;;;5052119;28;20490;-75
2022/08/31 06:37:55;;;;;;;0.73;0.73;;;;;;;;;;5059900;28;20459;-75
2022/08/31 06:40:47;;;;;;;1.00;1.00;;;;;;;;;;5056632;28;20534;-76
2022/08/31 06:43:31;;;;;;;0.80;0.80;;;;;;;;;;5055958;28;20451;-76
2022/08/31 06:46:10;;;;;;;2.40;2.30;;;;;;;;;;5071692;28;20950;-75
2022/08/31 06:48:56;;;;;;;3.13;1.07;;;;;;;;;;5048792;28;20486;-75
2022/08/31 06:51:23;;;;;;;0.80;0.73;;;;;;;;;;5056821;28;20817;-74
2022/08/31 06:53:51;;;;;;;0.70;0.70;;;;;;;;;;5060825;28;20445;-75
2022/08/31 06:56:42;;;;;;;0.77;0.77;;;;;;;;;;5066778;28;20569;-75
2022/08/31 06:59:27;;;;;;;0.93;0.80;;;;;;;;;;5063390;28;20424;-74
2022/08/31 07:02:11;;;;;;;1.90;1.80;;;;;;;;;;5061628;28;20989;-75
2022/08/31 07:04:39;;;;;;;1.10;1.00;;;;;;;;;;5064771;28;20494;-75
2022/08/31 07:07:07;;;;;;;0.70;0.70;;;;;;;;;;5062788;28;20467;-75
2022/08/31 07:09:34;;;;;;;1.30;1.20;;;;;;;;;;5067068;28;20490;-75
2022/08/31 07:12:03;;;;;;;0.90;0.90;;;;;;;;;;5065863;28;20448;-77
2022/08/31 07:14:30;;;;;;;0.87;0.87;;;;;;;;;;5067903;28;20452;-77
2022/08/31 07:16:58;;;;;;;0.87;0.87;;;;;;;;;;5059890;28;20450;-76
2022/08/31 07:19:25;;;;;;;0.93;0.83;;;;;;;;;;5067580;28;20449;-77
2022/08/31 07:21:55;;;;;;;0.70;0.70;;;;;;;;;;5070798;28;20489;-76
2022/08/31 07:24:23;;;;;;;2.90;1.33;;;;;;;;;;5051469;28;20454;-76
2022/08/31 07:26:52;;;;;;;2.70;0.90;;;;;;;;;;5050288;28;20447;-76
2022/08/31 07:29:29;;;;;;;1.43;1.33;;;;;;;;;;5060795;28;20495;-77
2022/08/31 07:31:58;;;;;;;0.70;0.70;;;;;;;;;;5051401;28;20464;-77
2022/08/31 07:34:26;;;;;;;0.90;0.90;;;;;;;;;;5068494;28;20438;-78
2022/08/31 07:42:54;;;;;;;0.70;0.60;;;;;;;;;;5065949;28;20473;-76
2022/08/31 07:45:23;;;;;;;1.10;0.90;;;;;;;;;;5059545;28;20448;-77
2022/08/31 07:48:01;;;;;;;2.60;2.40;;;;;;;;;;5067582;28;20473;-77
2022/08/31 07:50:43;;;;;;;0.70;0.70;;;;;;;;;;5050033;28;20471;-77
2022/08/31 07:53:46;;;;;;;0.70;0.70;;;;;;;;;;5070306;28;20444;-78
2022/08/31 07:56:32;;;;;;;0.87;0.87;;;;;;;;;;5066514;28;20431;-79
2022/08/31 07:59:27;;;;;;;1.20;1.10;;;;;;;;;;5066835;28;20832;-79
2022/08/31 08:01:55;;;;;;;0.70;0.70;;;;;;;;;;5064600;28;20498;-78
2022/08/31 08:04:26;;;;;;;0.80;0.77;;;;;;;;;;5062530;28;20448;-77
2022/08/31 08:07:07;;;;;;;1.17;1.00;;;;;;;;;;5068173;28;20497;-77
2022/08/31 08:09:50;;;;;;;1.40;1.30;;;;;;;;;;5064566;28;20788;-77
2022/08/31 08:12:36;;;;;;;1.20;1.10;;;;;;;;;;5065299;28;20419;-78
2022/08/31 08:15:21;;;;;;;4.20;1.30;;;;;;;;;;5049129;28;20556;-78
2022/08/31 08:18:15;;;;;;;2.00;1.90;;;;;;;;;;5055502;28;20543;-78
2022/08/31 08:20:48;;;;;;;0.90;0.90;;;;;;;;;;5071435;28;20597;-77
2022/08/31 08:23:15;;;;;;;0.70;0.70;;;;;;;;;;5051648;28;20523;-77
2022/08/31 08:26:13;;;;;;;0.73;0.70;;;;;;;;;;5061088;28;20419;-77
2022/08/31 08:28:59;;;;;;;1.13;1.00;;;;;;;;;;5061942;28;20496;-77
2022/08/31 08:31:27;;;;;;;1.83;1.73;;;;;;;;;;5059350;28;20459;-77
2022/08/31 08:33:56;;;;;;;0.93;0.90;;;;;;;;;;5065150;28;20822;-76
2022/08/31 08:36:23;;;;;;;0.70;0.70;;;;;;;;;;5063464;28;20494;-76
2022/08/31 08:38:52;;;;;;;0.80;0.70;;;;;;;;;;5064695;28;20943;-78
2022/08/31 08:41:24;;;;;;;0.70;0.70;;;;;;;;;;5064146;28;20471;-78
2022/08/31 08:43:52;;;;;;;0.77;0.70;;;;;;;;;;5062539;28;20574;-78
2022/08/31 08:46:28;;;;;;;0.90;0.90;;;;;;;;;;5061256;28;20812;-78
2022/08/31 08:49:07;;;;;;;0.93;0.93;;;;;;;;;;5064153;28;20436;-78
2022/08/31 08:51:37;;;;;;;1.43;0.90;;;;;;;;;;5064438;28;20486;-77
2022/08/31 08:54:08;;;;;;;1.10;1.00;;;;;;;;;;5062663;28;20454;-78
2022/08/31 08:56:40;;;;;;;1.03;0.80;;;;;;;;;;5055132;28;20414;-78
2022/08/31 08:59:10;;;;;;;1.00;0.80;;;;;;;;;;5060689;28;20510;-77
2022/08/31 09:01:47;;;;;;;0.70;0.60;;;;;;;;;;5064479;28;20422;-79
2022/08/31 09:04:23;;;;;;;0.80;0.70;;;;;;;;;;5061081;28;20959;-77
2022/08/31 09:07:10;;;;;;;1.17;1.10;;;;;;;;;;5061460;28;20467;-77
2022/08/31 09:09:41;;;;;;;0.80;0.77;;;;;;;;;;5065326;28;20572;-79
2022/08/31 09:12:23;;;;;;;0.70;0.70;;;;;;;;;;5063078;28;20418;-78
2022/08/31 09:14:58;;;;;;;1.00;0.90;;;;;;;;;;5047679;28;20414;-79
2022/08/31 09:17:36;;;;;;;1.00;0.90;;;;;;;;;;5061684;28;20410;-78
2022/08/31 09:20:06;;;;;;;1.13;1.03;;;;;;;;;;5063489;28;20476;-79
2022/08/31 09:22:45;;;;;;;1.20;1.10;;;;;;;;;;5044745;28;20475;-79
2022/08/31 09:25:16;;;;;;;0.80;0.70;;;;;;;;;;5055375;28;20484;-81
2022/08/31 09:27:45;;;;;;;2.23;2.13;;;;;;;;;;5058117;28;20444;-81
2022/08/31 09:30:16;;;;;;;0.90;0.83;;;;;;;;;;5061333;28;21025;-79
2022/08/31 09:32:56;;;;;;;0.80;0.80;;;;;;;;;;5064530;28;20879;-82
2022/08/31 09:35:29;;;;;;;0.80;0.70;;;;;;;;;;5048874;28;20418;-81
2022/08/31 09:38:00;;;;;;;0.70;0.70;;;;;;;;;;5059699;28;20469;-81
2022/08/31 09:40:35;;;;;;;0.80;0.70;;;;;;;;;;5059999;28;20943;-80
2022/08/31 09:43:05;;;;;;;1.00;0.93;;;;;;;;;;5061103;28;20976;-76
2022/08/31 09:45:36;;;;;;;2.17;0.90;;;;;;;;;;5058266;28;20447;-80
2022/08/31 09:48:08;;;;;;;0.83;0.83;;;;;;;;;;5066831;28;20508;-79
2022/08/31 09:50:44;;;;;;;1.37;1.20;;;;;;;;;;5068470;28;20459;-79
2022/08/31 09:56:06;;;;;;;1.10;1.00;;;;;;;;;;5066315;28;20447;-79
2022/08/31 09:58:35;;;;;;;1.40;1.30;;;;;;;;;;5064886;28;20504;-79
2022/08/31 10:01:11;;;;;;;0.70;0.70;;;;;;;;;;5049523;28;20479;-78
2022/08/31 10:03:43;;;;;;;0.70;0.60;;;;;;;;;;5062287;28;20511;-79
2022/08/31 10:06:43;;;;;;;1.07;0.90;;;;;;;;;;5057694;28;20486;-77
2022/08/31 10:09:13;;;;;;;0.70;0.60;;;;;;;;;;5057693;28;20955;-78
2022/08/31 10:11:42;;;;;;;0.80;0.70;;;;;;;;;;5054623;28;20420;-79
2022/08/31 10:14:18;;;;;;;1.47;1.37;;;;;;;;;;5068440;28;20439;-79
2022/08/31 10:16:48;;;;;;;1.43;1.33;;;;;;;;;;5063461;28;20426;-78
2022/08/31 10:19:17;;;;;;;1.03;0.93;;;;;;;;;;5059952;28;20954;-80
2022/08/31 10:21:52;;;;;;;1.37;1.27;;;;;;;;;;5060974;28;20458;-78
2022/08/31 10:24:26;;;;;;;0.70;0.60;;;;;;;;;;5061986;28;20462;-77
2022/08/31 10:27:00;;;;;;;1.07;0.97;;;;;;;;;;5065731;28;20450;-78
2022/08/31 10:29:30;;;;;;;1.53;1.43;;;;;;;;;;5061595;28;20435;-77
2022/08/31 10:31:58;;;;;;;2.73;1.37;;;;;;;;;;5058886;28;20452;-77
2022/08/31 10:37:17;;;;;;;0.80;0.70;;;;;;;;;;5062648;28;21029;-78
2022/08/31 10:39:46;;;;;;;1.10;0.80;;;;;;;;;;5050604;28;20762;-78
2022/08/31 10:42:16;;;;;;;1.43;0.80;;;;;;;;;;5057915;28;20482;-77
2022/08/31 10:44:47;;;;;;;0.80;0.80;;;;;;;;;;5068760;28;20947;-77
2022/08/31 10:47:15;;;;;;;0.73;0.63;;;;;;;;;;5064735;28;20431;-78
2022/08/31 10:50:02;;;;;;;1.73;1.43;;;;;;;;;;5066614;28;20441;-77
2022/08/31 10:52:32;;;;;;;1.23;1.13;;;;;;;;;;5063652;28;20452;-77
2022/08/31 10:55:05;;;;;;;0.80;0.70;;;;;;;;;;5064209;28;20450;-77
2022/08/31 10:57:38;;;;;;;1.10;1.00;;;;;;;;;;5064157;28;21019;-78
2022/08/31 11:00:07;;;;;;;0.70;0.60;;;;;;;;;;5065837;28;20509;-77
2022/08/31 11:02:42;;;;;;;0.80;0.70;;;;;;;;;;5064575;28;20476;-77
2022/08/31 11:05:27;;;;;;;1.80;1.70;;;;;;;;;;5055179;28;20434;-76
2022/08/31 11:08:01;;;;;;;0.80;0.60;;;;;;;;;;5067513;28;20530;-77
2022/08/31 11:10:37;;;;;;;1.00;0.90;;;;;;;;;;5076517;28;20440;-77
2022/08/31 11:13:13;;;;;;;0.70;0.50;;;;;;;;;;5058658;28;20436;-79
2022/08/31 11:15:48;;;;;;;0.80;0.70;;;;;;;;;;5061242;28;20434;-77
2022/08/31 11:18:39;;;;;;;0.87;0.70;;;;;;;;;;5051482;28;20473;-76
2022/08/31 11:21:18;;;;;;;1.50;1.40;;;;;;;;;;5062793;28;20463;-77
2022/08/31 11:23:53;;;;;;;0.83;0.60;;;;;;;;;;5065214;28;20466;-77
2022/08/31 11:26:35;;;;;;;1.47;1.00;;;;;;;;;;5063349;28;20455;-76
2022/08/31 11:29:08;;;;;;;0.70;0.60;;;;;;;;;;5064483;28;20888;-76
2022/08/31 11:31:37;;;;;;;1.50;1.13;;;;;;;;;;5063040;28;20448;-76
2022/08/31 11:34:07;;;;;;;0.70;0.60;;;;;;;;;;5065797;28;20438;-77
2022/08/31 11:36:46;;;;;;;0.80;0.70;;;;;;;;;;5065528;28;20896;-77
2022/08/31 11:39:25;;;;;;;0.70;0.50;;;;;;;;;;5063856;28;20443;-77
2022/08/31 11:41:54;;;;;;;0.80;0.70;;;;;;;;;;5065131;28;20455;-76
2022/08/31 11:44:40;;;;;;;1.10;0.70;;;;;;;;;;5062656;28;20455;-75
2022/08/31 11:47:11;;;;;;;0.90;0.80;;;;;;;;;;5054970;28;20446;-77
2022/08/31 11:49:44;;;;;;;1.23;0.80;;;;;;;;;;5066610;28;20531;-76
2022/08/31 11:52:28;;;;;;;0.80;0.70;;;;;;;;;;5070575;28;20471;-77
2022/08/31 11:54:58;;;;;;;0.90;0.80;;;;;;;;;;5057448;28;20446;-78
2022/08/31 11:57:27;;;;;;;1.97;1.77;;;;;;;;;;5064711;28;20542;-79
2022/08/31 12:00:00;;;;;;;0.80;0.70;;;;;;;;;;5068893;28;20430;-78
2022/08/31 12:02:40;;;;;;;1.27;1.17;;;;;;;;;;5059081;28;20451;-78
2022/08/31 12:05:08;;;;;;;1.00;0.77;;;;;;;;;;5061512;28;20478;-79
2022/08/31 12:07:39;;;;;;;0.83;0.77;;;;;;;;;;5069689;28;20486;-80
2022/08/31 12:10:16;;;;;;;0.80;0.70;;;;;;;;;;5056136;28;20428;-78
2022/08/31 12:12:50;;;;;;;0.80;0.60;;;;;;;;;;5064659;28;20466;-77
2022/08/31 12:15:19;;;;;;;1.00;0.90;;;;;;;;;;5059220;28;20431;-77
2022/08/31 12:17:54;;;;;;;0.80;0.60;;;;;;;;;;5056610;28;20432;-78
2022/08/31 12:20:25;;;;;;;0.80;0.60;;;;;;;;;;5055786;28;20443;-78
2022/08/31 12:26:06;;;;;;;1.00;0.90;;;;;;;;;;5068265;28;20558;-78
2022/08/31 12:28:38;;;;;;;1.00;0.80;;;;;;;;;;5059447;28;20550;-78
2022/08/31 12:31:10;;;;;;;1.10;0.70;;;;;;;;;;5051138;28;20967;-77
2022/08/31 12:33:42;;;;;;;1.00;0.90;;;;;;;;;;5058813;28;20454;-76
2022/08/31 12:36:12;;;;;;;1.17;1.07;;;;;;;;;;5064929;28;20801;-76
2022/08/31 12:38:39;;;;;;;0.70;0.60;;;;;;;;;;5054585;28;20494;-75
2022/08/31 12:41:08;;;;;;;1.27;1.17;;;;;;;;;;5055190;28;20470;-77
2022/08/31 12:43:37;;;;;;;0.80;0.80;;;;;;;;;;5058899;28;20823;-76
2022/08/31 12:46:18;;;;;;;2.60;1.03;;;;;;;;;;5045063;28;20479;-76
2022/08/31 12:49:08;;;;;;;0.80;0.70;;;;;;;;;;5060399;28;20448;-78
2022/08/31 12:51:41;;;;;;;0.80;0.70;;;;;;;;;;5050746;28;20528;-77
2022/08/31 12:54:38;;;;;;;0.80;0.60;;;;;;;;;;5061440;28;20552;-76
2022/08/31 12:57:13;;;;;;;0.80;0.60;;;;;;;;;;5009452;28;20449;-72
2022/08/31 12:59:48;;;;;;;0.80;0.73;;;;;;;;;;5042233;28;20456;-74
2022/08/31 13:02:28;;;;;;;0.73;0.60;;;;;;;;;;5057905;28;20420;-74
2022/08/31 13:04:58;;;;;;;0.93;0.83;;;;;;;;;;5061545;28;20467;-75
2022/08/31 13:07:28;;;;;;;0.93;0.80;;;;;;;;;;5055656;28;20494;-75
2022/08/31 13:10:02;;;;;;;0.80;0.80;;;;;;;;;;5046340;28;20479;-75
2022/08/31 13:12:31;;;;;;;1.57;1.37;;;;;;;;;;5059457;28;20529;-76
2022/08/31 13:14:58;;;;;;;0.80;0.73;;;;;;;;;;5063949;28;20459;-75
2022/08/31 13:17:25;;;;;;;0.77;0.63;;;;;;;;;;5058924;28;20444;-75
2022/08/31 13:19:54;;;;;;;1.00;0.80;;;;;;;;;;5066219;28;20486;-76
2022/08/31 13:22:26;;;;;;;0.80;0.70;;;;;;;;;;5040702;28;20472;-74
2022/08/31 13:24:53;;;;;;;1.43;0.90;;;;;;;;;;5059648;28;20815;-74
2022/08/31 13:27:20;;;;;;;0.80;0.80;;;;;;;;;;5063492;28;20446;-75
2022/08/31 13:29:49;;;;;;;1.10;0.70;;;;;;;;;;5061242;28;20443;-74
2022/08/31 13:32:32;;;;;;;0.90;0.80;;;;;;;;;;5057742;28;20485;-74
2022/08/31 13:35:02;;;;;;;1.40;1.30;;;;;;;;;;5060992;28;20481;-74
2022/08/31 13:37:32;;;;;;;3.03;1.53;;;;;;;;;;5053598;28;20464;-74
2022/08/31 13:40:03;;;;;;;0.80;0.70;;;;;;;;;;5061930;28;20770;-76
2022/08/31 13:42:32;;;;;;;0.70;0.70;;;;;;;;;;5054386;28;20428;-74
2022/08/31 13:45:06;;;;;;;0.80;0.70;;;;;;;;;;5053964;28;21049;-75
2022/08/31 13:47:34;;;;;;;1.07;0.97;;;;;;;;;;5054949;28;20504;-75
2022/08/31 13:50:24;;;;;;;1.23;0.90;;;;;;;;;;5061026;28;20516;-75
2022/08/31 13:52:54;;;;;;;1.10;1.00;;;;;;;;;;5065221;28;20435;-75
2022/08/31 13:55:42;;;;;;;1.00;0.90;;;;;;;;;;5065939;28;20438;-75
2022/08/31 13:58:21;;;;;;;0.80;0.70;;;;;;;;;;5059033;28;20459;-76
2022/08/31 14:00:54;;;;;;;0.97;0.87;;;;;;;;;;5058794;28;20447;-75
2022/08/31 14:03:40;;;;;;;0.90;0.90;;;;;;;;;;5059521;28;20925;-74
2022/08/31 14:06:15;;;;;;;0.80;0.80;;;;;;;;;;5063646;28;20501;-75
2022/08/31 14:08:45;;;;;;;1.20;1.10;;;;;;;;;;5060631;28;20500;-75
2022/08/31 14:11:13;;;;;;;1.23;1.13;;;;;;;;;;5054336;28;20501;-76
2022/08/31 14:13:46;;;;;;;1.20;0.80;;;;;;;;;;5063389;28;20959;-77
2022/08/31 14:16:18;;;;;;;0.80;0.70;;;;;;;;;;5063987;28;20453;-76
2022/08/31 14:18:54;;;;;;;1.20;1.10;;;;;;;;;;5061799;28;20545;-76
2022/08/31 14:21:25;;;;;;;2.00;1.57;;;;;;;;;;5058308;28;20495;-77
2022/08/31 14:23:53;;;;;;;1.53;1.30;;;;;;;;;;5060275;28;20987;-74
2022/08/31 14:26:21;;;;;;;2.70;0.80;;;;;;;;;;5064897;28;20911;-76
2022/08/31 14:28:49;;;;;;;0.80;0.80;;;;;;;;;;5057929;28;20448;-76
2022/08/31 14:31:21;;;;;;;0.70;0.63;;;;;;;;;;5061288;28;20475;-76
2022/08/31 14:33:50;;;;;;;0.70;0.60;;;;;;;;;;5060985;28;20825;-76
2022/08/31 14:36:18;;;;;;;0.83;0.80;;;;;;;;;;5055518;28;21127;-75
2022/08/31 14:38:46;;;;;;;1.70;1.60;;;;;;;;;;5056611;28;20443;-77
2022/08/31 14:41:15;;;;;;;0.90;0.60;;;;;;;;;;5059947;28;20438;-75
2022/08/31 14:43:43;;;;;;;0.77;0.60;;;;;;;;;;5066354;28;20521;-76
2022/08/31 14:46:14;;;;;;;0.70;0.60;;;;;;;;;;5052943;28;20933;-74
2022/08/31 14:48:43;;;;;;;0.80;0.60;;;;;;;;;;5058168;28;20444;-77
2022/08/31 14:51:10;;;;;;;0.80;0.70;;;;;;;;;;5061236;28;20521;-76
2022/08/31 14:53:37;;;;;;;0.80;0.80;;;;;;;;;;5062687;28;20431;-77
2022/08/31 14:56:06;;;;;;;0.80;0.80;;;;;;;;;;5060911;28;20427;-75
2022/08/31 14:58:36;;;;;;;0.70;0.60;;;;;;;;;;5054529;28;20503;-75
2022/08/31 15:01:04;;;;;;;1.47;1.27;;;;;;;;;;5062689;28;20423;-75
2022/08/31 15:03:33;;;;;;;1.00;0.90;;;;;;;;;;5061638;28;20478;-76
2022/08/31 15:06:02;;;;;;;0.80;0.70;;;;;;;;;;5059656;28;20505;-77
2022/08/31 15:08:29;;;;;;;0.80;0.60;;;;;;;;;;5061301;28;20912;-76
2022/08/31 15:11:06;;;;;;;1.13;0.70;;;;;;;;;;5066407;28;20435;-77
2022/08/31 15:13:37;;;;;;;0.80;0.60;;;;;;;;;;5060473;28;20457;-77
2022/08/31 15:16:05;;;;;;;0.80;0.63;;;;;;;;;;5045557;28;20463;-77
2022/08/31 15:18:32;;;;;;;1.93;1.00;;;;;;;;;;5060398;28;20450;-76
2022/08/31 15:21:01;;;;;;;1.00;0.90;;;;;;;;;;5060094;28;20816;-77
2022/08/31 15:23:30;;;;;;;0.80;0.60;;;;;;;;;;5064562;28;20439;-77
2022/08/31 15:26:05;;;;;;;1.00;0.80;;;;;;;;;;5055236;28;20428;-77
2022/08/31 15:28:36;;;;;;;0.80;0.50;;;;;;;;;;5066663;28;20448;-77
2022/08/31 15:31:07;;;;;;;0.70;0.50;;;;;;;;;;5068540;28;20462;-75
2022/08/31 15:33:38;;;;;;;1.33;1.23;;;;;;;;;;5072415;28;20831;-75
2022/08/31 15:36:06;;;;;;;0.80;0.60;;;;;;;;;;5076278;28;20865;-75